Etusivu
METAR-TAF:

Lentoasemat :

Kittilä, Suomi

Kittilän lentoasema

Leveyspiiri: 67-42N, Pituuspiiri: 024-51E, korkeus merenpinnasta: 196 m

Tämänhetkinen sää

Tämä raportti tehtiin 18 minuuttia sitten, kello 16.50 UTC
Tuuli 2 kn eri suunnista
Lämpötila 25°C
Kosteus 30%
Ilmanpaine 1023 hPa
Näkyvyys 10 km tai enemmän
ei pilviä alle 1500 m:ssä eikä cumulonimbus-pilviä

METAR: EFKT 291650Z AUTO VRB02KT CAVOK 25/06 Q1023

Aika: 20:08 (17:08 UTC)

Sääennuste

Tämä raportti tehtiin 11 tuntia ja 42 minuuttia sitten, kello 05.26 UTC
Ennuste voimassa 29. päivästä klo 06 UTC - 29. päivään klo 10 UTC
Tuuli 3 kn lännestä/luoteesta
Näkyvyys 10 km tai enemmän
ei pilviä alle 1500 m:ssä eikä cumulonimbus-pilviä

TAF: EFKT 290526Z 2906/2910 30003KT CAVOK

METAR-TAF

Säähavainnot ja -ennusteet yli 4000 lentoasemalta (METAR- ja TAF-raportit).

Käytössä olevat sääasemat on merkitty karttaan keltaisilla ja punaisilla pisteillä.

Aseta hiiri pisteen päälle nähdäksesi sääaseman nimen.

Klikkaa sitten nähdäksesi säähavainnot ja -ennusteet.

Kartan vaihtaminen: klikkaa mustalla rastilla varustettuja vihreitä pisteitä, niin voit zoomata sisään; viivalla varustettua vihreää pistettä, niin voit zoomata ulos tai vihreitä nuolia, niin pääset viereisille kartoille.


METAR-TAF: